Time,TemperatureF,DewpointF,PressureIn,WindDirection,WindDirectionDegrees,WindSpeedMPH,WindSpeedGustMPH,Humidity,HourlyPrecipIn,Conditions,Clouds,dailyrainin,SoftwareType,DateUTC
2013-09-02 00:00:00,86.0,58.2,29.98,East,90,1.3,1.3,39,0.00,,,0.00,WUHU216HW,2013-09-02 07:00:00,
2013-09-02 00:05:00,85.9,58.1,29.98,East,90,1.3,1.3,39,0.00,,,0.00,WUHU216HW,2013-09-02 07:05:00,
2013-09-02 00:10:00,85.9,58.1,29.98,East,90,1.3,1.3,39,0.00,,,0.00,WUHU216HW,2013-09-02 07:10:00,
2013-09-02 00:30:00,83.9,58.3,29.99,ESE,113,2.0,2.0,42,0.00,,,0.00,WUHU216HW,2013-09-02 07:30:00,
2013-09-02 00:35:00,83.9,58.3,29.99,ESE,113,1.3,2.2,42,0.00,,,0.00,WUHU216HW,2013-09-02 07:35:00,
2013-09-02 00:40:00,83.9,58.3,29.99,ESE,113,1.3,2.2,42,0.00,,,0.00,WUHU216HW,2013-09-02 07:40:00,
2013-09-02 01:00:00,83.0,58.8,30.00,ESE,113,4.7,4.7,44,0.00,,,0.00,WUHU216HW,2013-09-02 08:00:00,
2013-09-02 01:05:00,83.0,58.8,30.00,East,90,5.1,5.1,44,0.00,,,0.00,WUHU216HW,2013-09-02 08:05:00,
2013-09-02 01:10:00,83.0,58.8,30.00,East,90,5.1,5.1,44,0.00,,,0.00,WUHU216HW,2013-09-02 08:10:00,
2013-09-02 01:30:00,81.5,58.7,29.99,ESE,113,2.9,2.9,46,0.00,,,0.00,WUHU216HW,2013-09-02 08:30:00,
2013-09-02 01:35:00,81.5,58.7,29.99,SSE,158,2.0,2.9,46,0.00,,,0.00,WUHU216HW,2013-09-02 08:35:00,
2013-09-02 01:40:00,81.5,58.7,29.99,SSE,158,2.0,2.0,46,0.00,,,0.00,WUHU216HW,2013-09-02 08:40:00,
2013-09-02 02:00:00,80.3,59.4,29.97,East,90,3.4,3.4,49,0.00,,,0.00,WUHU216HW,2013-09-02 09:00:00,
2013-09-02 02:05:00,80.1,59.2,29.97,ENE,68,4.3,4.7,49,0.00,,,0.00,WUHU216HW,2013-09-02 09:05:00,
2013-09-02 02:10:00,80.1,59.2,29.97,ENE,68,4.3,4.7,49,0.00,,,0.00,WUHU216HW,2013-09-02 09:10:00,
2013-09-02 02:30:00,79.2,59.5,29.97,ESE,113,4.9,4.9,51,0.00,,,0.00,WUHU216HW,2013-09-02 09:30:00,
2013-09-02 02:35:00,79.4,59.7,29.97,East,90,3.8,5.8,51,0.00,,,0.00,WUHU216HW,2013-09-02 09:35:00,
2013-09-02 02:40:00,79.4,59.7,29.97,East,90,3.8,5.8,51,0.00,,,0.00,WUHU216HW,2013-09-02 09:40:00,
2013-09-02 03:00:00,78.8,59.2,29.97,West,270,0.9,0.9,51,0.00,,,0.00,WUHU216HW,2013-09-02 10:00:00,
2013-09-02 03:05:00,78.8,59.2,29.97,West,270,0.9,1.1,51,0.00,,,0.00,WUHU216HW,2013-09-02 10:05:00,
2013-09-02 03:10:00,78.8,59.2,29.97,West,270,0.9,1.1,51,0.00,,,0.00,WUHU216HW,2013-09-02 10:10:00,
2013-09-02 03:30:00,78.3,59.2,29.98,ENE,68,3.1,3.1,52,0.00,,,0.00,WUHU216HW,2013-09-02 10:30:00,
2013-09-02 03:35:00,78.3,59.8,29.98,ENE,68,2.9,3.4,53,0.00,,,0.00,WUHU216HW,2013-09-02 10:35:00,
2013-09-02 03:40:00,78.3,59.8,29.98,ENE,68,2.9,3.4,53,0.00,,,0.00,WUHU216HW,2013-09-02 10:40:00,
2013-09-02 04:00:00,78.3,59.8,29.99,SE,135,2.7,2.7,53,0.00,,,0.00,WUHU216HW,2013-09-02 11:00:00,
2013-09-02 04:05:00,78.3,59.8,29.99,ESE,113,4.3,5.1,53,0.00,,,0.00,WUHU216HW,2013-09-02 11:05:00,
2013-09-02 04:10:00,78.3,59.8,29.99,ESE,113,4.3,5.1,53,0.00,,,0.00,WUHU216HW,2013-09-02 11:10:00,
2013-09-02 04:30:00,78.5,60.0,29.99,ESE,113,4.9,4.9,53,0.00,,,0.00,WUHU216HW,2013-09-02 11:30:00,
2013-09-02 04:35:00,78.5,60.0,29.99,ESE,113,3.4,4.9,53,0.00,,,0.00,WUHU216HW,2013-09-02 11:35:00,
2013-09-02 04:40:00,78.5,60.0,29.99,ESE,113,3.4,4.9,53,0.00,,,0.00,WUHU216HW,2013-09-02 11:40:00,
2013-09-02 05:00:00,78.3,60.3,29.99,East,90,2.9,2.9,54,0.00,,,0.00,WUHU216HW,2013-09-02 12:00:00,
2013-09-02 05:05:00,78.3,60.3,29.99,ESE,113,3.6,3.6,54,0.00,,,0.00,WUHU216HW,2013-09-02 12:05:00,
2013-09-02 05:10:00,78.3,60.3,29.99,ESE,113,3.6,3.6,54,0.00,,,0.00,WUHU216HW,2013-09-02 12:10:00,
2013-09-02 05:30:00,77.8,59.8,29.99,ESE,113,8.5,8.5,54,0.00,,,0.00,WUHU216HW,2013-09-02 12:30:00,
2013-09-02 05:35:00,77.8,59.8,29.99,East,90,8.3,8.5,54,0.00,,,0.00,WUHU216HW,2013-09-02 12:35:00,
2013-09-02 05:40:00,77.8,59.8,29.99,East,90,8.3,8.3,54,0.00,,,0.00,WUHU216HW,2013-09-02 12:40:00,
2013-09-02 06:00:00,78.3,60.3,30.01,SE,135,9.8,9.8,54,0.00,,,0.00,WUHU216HW,2013-09-02 13:00:00,
2013-09-02 06:05:00,78.3,60.3,30.01,ESE,113,4.7,9.8,54,0.00,,,0.00,WUHU216HW,2013-09-02 13:05:00,
2013-09-02 06:10:00,78.3,60.3,30.01,ESE,113,4.7,9.8,54,0.00,,,0.00,WUHU216HW,2013-09-02 13:10:00,
2013-09-02 06:30:00,78.8,60.8,30.05,ESE,113,12.1,12.1,54,0.00,,,0.00,WUHU216HW,2013-09-02 13:30:00,
2013-09-02 06:35:00,78.8,60.8,30.05,East,90,12.8,12.8,54,0.00,,,0.00,WUHU216HW,2013-09-02 13:35:00,
2013-09-02 06:40:00,78.8,60.8,30.05,East,90,12.8,12.8,54,0.00,,,0.00,WUHU216HW,2013-09-02 13:40:00,
2013-09-02 07:00:00,79.6,61.4,30.05,SE,135,12.3,12.3,54,0.00,,,0.00,WUHU216HW,2013-09-02 14:00:00,
2013-09-02 07:05:00,79.7,61.6,30.06,ESE,113,6.9,12.3,54,0.00,,,0.00,WUHU216HW,2013-09-02 14:05:00,
2013-09-02 07:10:00,79.7,61.6,30.06,ESE,113,6.9,12.3,54,0.00,,,0.00,WUHU216HW,2013-09-02 14:10:00,
2013-09-02 07:30:00,78.3,61.3,30.06,SE,135,9.8,9.8,56,0.00,,,0.00,WUHU216HW,2013-09-02 14:30:00,
2013-09-02 07:31:00,78.3,61.3,30.06,South,180,10.5,10.5,56,0.00,,,0.00,WUHU216HW,2013-09-02 14:31:00,
2013-09-02 07:35:00,78.3,61.3,30.06,South,180,10.5,10.5,56,0.00,,,0.00,WUHU216HW,2013-09-02 14:35:00,
2013-09-02 07:40:00,78.3,61.3,30.06,South,180,10.5,10.5,56,0.00,,,0.00,WUHU216HW,2013-09-02 14:40:00,
2013-09-02 08:00:00,78.1,61.7,30.06,ESE,113,4.0,4.0,57,0.00,,,0.00,WUHU216HW,2013-09-02 15:00:00,
2013-09-02 08:05:00,78.3,61.8,30.05,ENE,68,2.7,4.0,57,0.00,,,0.00,WUHU216HW,2013-09-02 15:05:00,
2013-09-02 08:10:00,78.3,61.8,30.05,ENE,68,2.7,2.9,57,0.00,,,0.00,WUHU216HW,2013-09-02 15:10:00,
2013-09-02 08:30:00,81.0,63.7,30.06,East,90,5.6,5.6,56,0.00,,,0.00,WUHU216HW,2013-09-02 15:30:00,
2013-09-02 08:35:00,81.0,63.7,30.06,ESE,113,4.9,6.0,56,0.00,,,0.00,WUHU216HW,2013-09-02 15:35:00,
2013-09-02 08:40:00,81.0,63.7,30.06,ESE,113,4.9,6.0,56,0.00,,,0.00,WUHU216HW,2013-09-02 15:40:00,
2013-09-02 09:00:00,82.8,63.8,30.04,SSE,158,2.0,2.0,53,0.00,,,0.00,WUHU216HW,2013-09-02 16:00:00,
2013-09-02 09:05:00,82.8,64.4,30.04,SSE,158,2.2,4.0,54,0.00,,,0.00,WUHU216HW,2013-09-02 16:05:00,
2013-09-02 09:10:00,82.8,64.4,30.04,SSE,158,2.2,4.0,54,0.00,,,0.00,WUHU216HW,2013-09-02 16:10:00,
2013-09-02 09:30:00,83.3,64.4,30.05,SSW,203,1.1,1.1,53,0.00,,,0.00,WUHU216HW,2013-09-02 16:30:00,
2013-09-02 09:35:00,83.3,64.4,30.05,SSE,158,0.7,1.6,53,0.00,,,0.00,WUHU216HW,2013-09-02 16:35:00,
2013-09-02 09:40:00,83.3,64.4,30.05,SSE,158,0.7,1.6,53,0.00,,,0.00,WUHU216HW,2013-09-02 16:40:00,
2013-09-02 10:00:00,85.1,65.6,30.05,SSE,158,2.5,2.5,52,0.00,,,0.00,WUHU216HW,2013-09-02 17:00:00,
2013-09-02 10:05:00,85.1,65.6,30.05,SE,135,2.7,2.7,52,0.00,,,0.00,WUHU216HW,2013-09-02 17:05:00,
2013-09-02 10:10:00,85.1,65.6,30.05,SE,135,2.7,2.7,52,0.00,,,0.00,WUHU216HW,2013-09-02 17:10:00,
2013-09-02 10:30:00,84.2,65.3,30.03,East,90,4.0,4.0,53,0.00,,,0.00,WUHU216HW,2013-09-02 17:30:00,
2013-09-02 10:35:00,84.2,65.3,30.03,SSE,158,4.3,5.4,53,0.00,,,0.00,WUHU216HW,2013-09-02 17:35:00,
2013-09-02 10:40:00,84.2,65.3,30.03,SSE,158,4.3,5.4,53,0.00,,,0.00,WUHU216HW,2013-09-02 17:40:00,
2013-09-02 11:00:00,84.1,65.1,30.03,SE,135,1.1,1.1,53,0.00,,,0.00,WUHU216HW,2013-09-02 18:00:00,
2013-09-02 11:05:00,83.9,64.9,30.03,SE,135,0.4,1.1,53,0.00,,,0.00,WUHU216HW,2013-09-02 18:05:00,
2013-09-02 11:16:00,83.7,63.7,30.02,WNW,293,0.9,0.9,51,0.00,,,0.00,WUHU216HW,2013-09-02 18:16:00,
2013-09-02 11:21:00,83.7,63.7,30.02,NNW,338,1.6,1.8,51,0.00,,,0.00,WUHU216HW,2013-09-02 18:21:00,
2013-09-02 11:26:00,83.3,63.4,30.01,NNW,338,3.1,3.8,51,0.00,,,0.00,WUHU216HW,2013-09-02 18:26:00,
2013-09-02 11:31:00,83.2,63.7,30.01,North,0,1.8,3.8,52,0.00,,,0.00,WUHU216HW,2013-09-02 18:31:00,
2013-09-02 11:36:00,83.2,63.7,30.01,West,270,2.0,3.1,52,0.00,,,0.00,WUHU216HW,2013-09-02 18:36:00,
2013-09-02 11:41:00,83.3,63.9,30.01,West,270,1.1,2.9,52,0.00,,,0.00,WUHU216HW,2013-09-02 18:41:00,
2013-09-02 11:46:00,83.5,64.1,30.01,NW,315,1.8,2.7,52,0.00,,,0.00,WUHU216HW,2013-09-02 18:46:00,
2013-09-02 11:51:00,83.7,64.3,30.00,WSW,248,3.1,4.7,52,0.00,,,0.00,WUHU216HW,2013-09-02 18:51:00,
2013-09-02 11:56:00,83.9,64.9,30.00,ESE,113,2.5,4.7,53,0.00,,,0.00,WUHU216HW,2013-09-02 18:56:00,
2013-09-02 12:01:00,84.4,66.0,30.00,East,90,0.9,4.3,54,0.00,,,0.00,WUHU216HW,2013-09-02 19:01:00,
2013-09-02 12:06:00,85.0,66.0,30.01,South,180,5.6,5.6,53,0.00,,,0.00,WUHU216HW,2013-09-02 19:06:00,
2013-09-02 12:11:00,85.3,66.2,30.01,SSE,158,6.0,8.3,53,0.00,,,0.00,WUHU216HW,2013-09-02 19:11:00,
2013-09-02 12:16:00,85.7,66.6,30.01,SE,135,7.2,8.9,53,0.00,,,0.00,WUHU216HW,2013-09-02 19:16:00,
2013-09-02 12:21:00,85.9,66.3,30.02,East,90,4.7,9.4,52,0.00,,,0.00,WUHU216HW,2013-09-02 19:21:00,
2013-09-02 12:26:00,86.0,66.4,30.02,SSE,158,5.4,9.4,52,0.00,,,0.00,WUHU216HW,2013-09-02 19:26:00,
2013-09-02 12:31:00,86.6,66.9,30.01,ESE,113,7.6,9.2,52,0.00,,,0.00,WUHU216HW,2013-09-02 19:31:00,
2013-09-02 12:36:00,86.8,67.1,30.00,ESE,113,4.0,9.2,52,0.00,,,0.00,WUHU216HW,2013-09-02 19:36:00,
2013-09-02 12:41:00,86.8,66.5,30.00,ESE,113,5.8,9.2,51,0.00,,,0.00,WUHU216HW,2013-09-02 19:41:00,
2013-09-02 12:46:00,86.9,67.2,29.99,ENE,68,4.7,6.5,52,0.00,,,0.00,WUHU216HW,2013-09-02 19:46:00,
2013-09-02 12:51:00,87.1,67.4,29.99,East,90,2.5,5.8,52,0.00,,,0.00,WUHU216HW,2013-09-02 19:51:00,
2013-09-02 12:56:00,87.5,67.7,29.99,ESE,113,3.6,5.8,52,0.00,,,0.00,WUHU216HW,2013-09-02 19:56:00,
2013-09-02 13:01:00,87.8,68.0,30.00,South,180,2.2,4.0,52,0.00,,,0.00,WUHU216HW,2013-09-02 20:01:00,
2013-09-02 13:06:00,88.0,68.2,29.99,ESE,113,2.2,4.0,52,0.00,,,0.00,WUHU216HW,2013-09-02 20:06:00,
2013-09-02 13:11:00,88.2,67.9,30.00,SE,135,3.4,4.0,51,0.00,,,0.00,WUHU216HW,2013-09-02 20:11:00,
2013-09-02 13:16:00,88.0,67.7,30.00,SSW,203,1.3,4.7,51,0.00,,,0.00,WUHU216HW,2013-09-02 20:16:00,
2013-09-02 13:21:00,87.5,67.1,30.00,SSW,203,5.4,5.8,51,0.00,,,0.00,WUHU216HW,2013-09-02 20:21:00,
2013-09-02 13:26:00,87.5,67.1,30.00,South,180,3.4,5.8,51,0.00,,,0.00,WUHU216HW,2013-09-02 20:26:00,
2013-09-02 13:31:00,87.8,67.5,30.00,SSE,158,3.6,6.3,51,0.00,,,0.00,WUHU216HW,2013-09-02 20:31:00,
2013-09-02 13:36:00,88.4,68.0,30.00,ESE,113,3.6,6.3,51,0.00,,,0.00,WUHU216HW,2013-09-02 20:36:00,
2013-09-02 13:41:00,89.1,68.1,30.00,South,180,1.1,4.0,50,0.00,,,0.00,WUHU216HW,2013-09-02 20:41:00,
2013-09-02 13:46:00,90.0,69.0,29.99,SW,225,3.4,3.4,50,0.00,,,0.00,WUHU216HW,2013-09-02 20:46:00,
2013-09-02 13:51:00,90.4,68.0,29.98,ESE,113,2.0,3.4,48,0.00,,,0.00,WUHU216HW,2013-09-02 20:51:00,
2013-09-02 13:56:00,91.4,69.6,29.98,South,180,0.4,3.4,49,0.00,,,0.00,WUHU216HW,2013-09-02 20:56:00,
2013-09-02 14:01:00,92.3,68.4,29.98,SSW,203,4.9,6.7,46,0.00,,,0.00,WUHU216HW,2013-09-02 21:01:00,
2013-09-02 14:06:00,92.0,68.1,29.97,SSW,203,1.1,6.7,46,0.00,,,0.00,WUHU216HW,2013-09-02 21:06:00,
2013-09-02 14:11:00,92.2,68.2,29.97,SSW,203,6.3,6.3,46,0.00,,,0.00,WUHU216HW,2013-09-02 21:11:00,
2013-09-02 14:16:00,92.2,67.6,29.97,SW,225,0.7,6.3,45,0.00,,,0.00,WUHU216HW,2013-09-02 21:16:00,
2013-09-02 14:21:00,92.9,67.0,29.97,WSW,248,3.1,6.3,43,0.00,,,0.00,WUHU216HW,2013-09-02 21:21:00,
2013-09-02 14:26:00,92.9,67.0,29.97,NW,315,1.1,4.7,43,0.00,,,0.00,WUHU216HW,2013-09-02 21:26:00,
2013-09-02 14:31:00,93.2,68.0,29.97,SSE,158,2.5,4.5,44,0.00,,,0.00,WUHU216HW,2013-09-02 21:31:00,
2013-09-02 14:36:00,93.2,67.3,29.97,WSW,248,1.8,4.7,43,0.00,,,0.00,WUHU216HW,2013-09-02 21:36:00,
2013-09-02 14:41:00,93.1,65.8,29.96,SSW,203,2.0,6.3,41,0.00,,,0.00,WUHU216HW,2013-09-02 21:41:00,
2013-09-02 14:46:00,93.4,66.2,29.96,West,270,2.0,6.3,41,0.00,,,0.00,WUHU216HW,2013-09-02 21:46:00,
2013-09-02 14:51:00,93.8,66.5,29.96,WSW,248,2.9,3.8,41,0.00,,,0.00,WUHU216HW,2013-09-02 21:51:00,
2013-09-02 14:56:00,94.0,65.2,29.96,SW,225,2.0,4.9,39,0.00,,,0.00,WUHU216HW,2013-09-02 21:56:00,
2013-09-02 15:01:00,94.3,65.5,29.96,WSW,248,2.5,4.9,39,0.00,,,0.00,WUHU216HW,2013-09-02 22:01:00,
2013-09-02 15:06:00,94.5,64.9,29.96,West,270,1.8,4.3,38,0.00,,,0.00,WUHU216HW,2013-09-02 22:06:00,
2013-09-02 15:11:00,94.5,64.9,29.95,West,270,7.4,8.1,38,0.00,,,0.00,WUHU216HW,2013-09-02 22:11:00,
2013-09-02 15:16:00,94.3,64.7,29.94,WSW,248,3.8,8.1,38,0.00,,,0.00,WUHU216HW,2013-09-02 22:16:00,
2013-09-02 15:20:00,94.7,65.0,29.94,WSW,248,2.5,7.6,38,0.00,,,0.00,WUHU216HW,2013-09-02 22:20:00,
2013-09-02 15:25:00,95.2,64.7,29.93,WSW,248,4.3,6.0,37,0.00,,,0.00,WUHU216HW,2013-09-02 22:25:00,
2013-09-02 15:30:00,95.6,62.6,29.93,West,270,2.9,6.3,34,0.00,,,0.00,WUHU216HW,2013-09-02 22:30:00,
2013-09-02 15:35:00,95.6,63.4,29.92,West,270,7.6,8.7,35,0.00,,,0.00,WUHU216HW,2013-09-02 22:35:00,
2013-09-02 15:40:00,95.8,62.7,29.92,NW,315,2.5,8.7,34,0.00,,,0.00,WUHU216HW,2013-09-02 22:40:00,
2013-09-02 15:45:00,95.8,61.1,29.92,NW,315,7.4,7.6,32,0.00,,,0.00,WUHU216HW,2013-09-02 22:45:00,
2013-09-02 15:50:00,95.9,62.0,29.93,West,270,4.5,7.4,33,0.00,,,0.00,WUHU216HW,2013-09-02 22:50:00,
2013-09-02 15:55:00,96.5,60.9,29.93,WNW,293,8.3,8.3,31,0.00,,,0.00,WUHU216HW,2013-09-02 22:55:00,
2013-09-02 16:00:00,96.5,60.0,29.93,WSW,248,2.5,8.3,30,0.00,,,0.00,WUHU216HW,2013-09-02 23:00:00,
2013-09-02 16:05:00,96.3,60.7,29.93,NW,315,7.2,9.4,31,0.00,,,0.00,WUHU216HW,2013-09-02 23:05:00,
2013-09-02 16:10:00,96.3,59.9,29.92,WSW,248,3.1,9.4,30,0.00,,,0.00,WUHU216HW,2013-09-02 23:10:00,
2013-09-02 16:15:00,96.5,59.0,29.93,West,270,4.9,8.9,29,0.00,,,0.00,WUHU216HW,2013-09-02 23:15:00,
2013-09-02 16:20:00,96.7,60.1,29.92,West,270,5.8,8.9,30,0.00,,,0.00,WUHU216HW,2013-09-02 23:20:00,
2013-09-02 16:25:00,96.8,58.2,29.92,WNW,293,6.9,8.5,28,0.00,,,0.00,WUHU216HW,2013-09-02 23:25:00,
2013-09-02 16:30:00,96.8,59.2,29.92,West,270,4.9,8.5,29,0.00,,,0.00,WUHU216HW,2013-09-02 23:30:00,
2013-09-02 16:35:00,97.0,60.5,29.91,NW,315,4.7,8.5,30,0.00,,,0.00,WUHU216HW,2013-09-02 23:35:00,
2013-09-02 16:40:00,96.8,59.2,29.90,West,270,10.3,10.3,29,0.00,,,0.00,WUHU216HW,2013-09-02 23:40:00,
2013-09-02 16:45:00,96.8,58.2,29.90,WSW,248,6.9,10.3,28,0.00,,,0.00,WUHU216HW,2013-09-02 23:45:00,
2013-09-02 16:50:00,97.0,59.4,29.90,WNW,293,6.3,10.3,29,0.00,,,0.00,WUHU216HW,2013-09-02 23:50:00,
2013-09-02 16:55:00,97.2,57.3,29.90,West,270,5.1,7.6,27,0.00,,,0.00,WUHU216HW,2013-09-02 23:55:00,
2013-09-02 17:01:00,97.4,56.3,29.90,West,270,6.3,8.9,26,0.00,,,0.00,WUHU216HW,2013-09-03 00:01:00,
2013-09-02 17:06:00,97.4,56.3,29.91,WSW,248,7.6,8.9,26,0.00,,,0.00,WUHU216HW,2013-09-03 00:06:00,
2013-09-02 17:11:00,97.4,56.3,29.91,NW,315,5.4,7.6,26,0.00,,,0.00,WUHU216HW,2013-09-03 00:11:00,
2013-09-02 17:16:00,97.4,55.3,29.92,West,270,4.7,7.6,25,0.00,,,0.00,WUHU216HW,2013-09-03 00:16:00,
2013-09-02 17:21:00,97.4,56.3,29.92,WNW,293,2.5,6.9,26,0.00,,,0.00,WUHU216HW,2013-09-03 00:21:00,
2013-09-02 17:26:00,97.4,57.5,29.92,WSW,248,7.2,7.2,27,0.00,,,0.00,WUHU216HW,2013-09-03 00:26:00,
2013-09-02 17:31:00,97.2,57.3,29.92,WSW,248,8.1,8.1,27,0.00,,,0.00,WUHU216HW,2013-09-03 00:31:00,
2013-09-02 17:36:00,97.0,57.2,29.93,West,270,4.5,9.2,27,0.00,,,0.00,WUHU216HW,2013-09-03 00:36:00,
2013-09-02 17:41:00,97.0,57.2,29.93,West,270,7.2,9.2,27,0.00,,,0.00,WUHU216HW,2013-09-03 00:41:00,
2013-09-02 17:46:00,96.8,57.0,29.92,WNW,293,4.5,8.3,27,0.00,,,0.00,WUHU216HW,2013-09-03 00:46:00,
2013-09-02 17:51:00,96.5,56.7,29.92,WNW,293,6.3,8.9,27,0.00,,,0.00,WUHU216HW,2013-09-03 00:51:00,
2013-09-02 17:56:00,96.1,56.4,29.91,WNW,293,6.5,8.9,27,0.00,,,0.00,WUHU216HW,2013-09-03 00:56:00,
2013-09-02 18:01:00,95.9,58.5,29.91,NW,315,6.3,8.5,29,0.00,,,0.00,WUHU216HW,2013-09-03 01:01:00,
2013-09-02 18:06:00,95.6,59.3,29.91,NNW,338,6.3,8.5,30,0.00,,,0.00,WUHU216HW,2013-09-03 01:06:00,
2013-09-02 18:11:00,95.2,59.1,29.91,NNW,338,3.1,8.7,30,0.00,,,0.00,WUHU216HW,2013-09-03 01:11:00,
2013-09-02 18:16:00,94.9,59.5,29.91,WNW,293,4.7,8.7,31,0.00,,,0.00,WUHU216HW,2013-09-03 01:16:00,
2013-09-02 18:21:00,94.5,59.2,29.91,NNW,338,4.9,8.1,31,0.00,,,0.00,WUHU216HW,2013-09-03 01:21:00,
2013-09-02 18:26:00,94.0,59.5,29.91,WNW,293,3.6,10.1,32,0.00,,,0.00,WUHU216HW,2013-09-03 01:26:00,
2013-09-02 18:31:00,93.4,59.9,29.91,West,270,5.4,10.1,33,0.00,,,0.00,WUHU216HW,2013-09-03 01:31:00,
2013-09-02 18:36:00,92.9,59.4,29.92,WNW,293,4.7,8.5,33,0.00,,,0.00,WUHU216HW,2013-09-03 01:36:00,
2013-09-02 18:41:00,92.5,59.0,29.92,WNW,293,5.1,8.1,33,0.00,,,0.00,WUHU216HW,2013-09-03 01:41:00,
2013-09-02 18:46:00,91.8,59.3,29.92,West,270,3.4,6.3,34,0.00,,,0.00,WUHU216HW,2013-09-03 01:46:00,
2013-09-02 18:51:00,91.4,59.0,29.93,WNW,293,5.4,6.9,34,0.00,,,0.00,WUHU216HW,2013-09-03 01:51:00,
2013-09-02 18:56:00,91.1,59.4,29.93,NNW,338,2.7,6.9,35,0.00,,,0.00,WUHU216HW,2013-09-03 01:56:00,
2013-09-02 19:01:00,90.7,59.1,29.93,WNW,293,4.5,6.9,35,0.00,,,0.00,WUHU216HW,2013-09-03 02:01:00,
2013-09-02 19:06:00,90.4,59.6,29.93,WSW,248,2.5,6.7,36,0.00,,,0.00,WUHU216HW,2013-09-03 02:06:00,
2013-09-02 19:11:00,90.2,59.4,29.93,NW,315,6.9,7.6,36,0.00,,,0.00,WUHU216HW,2013-09-03 02:11:00,
2013-09-02 19:15:00,90.0,60.8,29.93,West,270,2.7,7.6,38,0.00,,,0.00,WUHU216HW,2013-09-03 02:15:00,
2013-09-02 19:20:00,89.6,60.5,29.93,NW,315,4.0,6.9,38,0.00,,,0.00,WUHU216HW,2013-09-03 02:20:00,
2013-09-02 19:25:00,89.5,60.4,29.92,West,270,4.5,5.6,38,0.00,,,0.00,WUHU216HW,2013-09-03 02:25:00,
2013-09-02 19:30:00,89.3,60.2,29.93,NW,315,5.1,5.6,38,0.00,,,0.00,WUHU216HW,2013-09-03 02:30:00,
2013-09-02 19:35:00,89.3,60.2,29.93,NW,315,2.7,5.6,38,0.00,,,0.00,WUHU216HW,2013-09-03 02:35:00,
2013-09-02 19:40:00,88.9,60.8,29.93,WNW,293,2.7,5.6,39,0.00,,,0.00,WUHU216HW,2013-09-03 02:40:00,
2013-09-02 19:45:00,88.7,60.6,29.94,West,270,2.9,5.1,39,0.00,,,0.00,WUHU216HW,2013-09-03 02:45:00,
2013-09-02 19:50:00,88.4,60.3,29.94,WNW,293,4.5,5.6,39,0.00,,,0.00,WUHU216HW,2013-09-03 02:50:00,
2013-09-02 19:55:00,88.2,60.1,29.94,West,270,4.0,5.6,39,0.00,,,0.00,WUHU216HW,2013-09-03 02:55:00,
2013-09-02 20:00:00,88.0,60.9,29.95,West,270,4.0,5.6,40,0.00,,,0.00,WUHU216HW,2013-09-03 03:00:00,
2013-09-02 20:05:00,87.8,60.7,29.95,WNW,293,4.0,5.1,40,0.00,,,0.00,WUHU216HW,2013-09-03 03:05:00,
2013-09-02 20:10:00,87.7,60.5,29.95,NW,315,3.1,4.9,40,0.00,,,0.00,WUHU216HW,2013-09-03 03:10:00,
2013-09-02 20:15:00,87.5,60.3,29.95,WNW,293,2.9,4.9,40,0.00,,,0.00,WUHU216HW,2013-09-03 03:15:00,
2013-09-02 20:20:00,87.3,60.2,29.95,WNW,293,2.7,4.0,40,0.00,,,0.00,WUHU216HW,2013-09-03 03:20:00,
2013-09-02 20:25:00,87.1,60.0,29.95,West,270,1.3,4.7,40,0.00,,,0.00,WUHU216HW,2013-09-03 03:25:00,
2013-09-02 20:30:00,87.1,60.0,29.95,West,270,2.9,4.7,40,0.00,,,0.00,WUHU216HW,2013-09-03 03:30:00,
2013-09-02 20:35:00,87.3,60.2,29.95,NW,315,2.5,4.3,40,0.00,,,0.00,WUHU216HW,2013-09-03 03:35:00,
2013-09-02 20:40:00,87.3,60.2,29.95,WSW,248,3.1,4.3,40,0.00,,,0.00,WUHU216HW,2013-09-03 03:40:00,
2013-09-02 20:45:00,86.8,60.3,29.95,SW,225,1.8,4.0,41,0.00,,,0.00,WUHU216HW,2013-09-03 03:45:00,
2013-09-02 20:50:00,86.6,60.1,29.94,North,0,1.1,4.0,41,0.00,,,0.00,WUHU216HW,2013-09-03 03:50:00,
2013-09-02 20:55:00,86.2,59.9,29.95,NE,45,0.9,3.4,41,0.00,,,0.00,WUHU216HW,2013-09-03 03:55:00,
2013-09-02 21:00:00,86.0,59.7,29.95,East,90,1.1,3.4,41,0.00,,,0.00,WUHU216HW,2013-09-03 04:00:00,
2013-09-02 21:01:00,86.0,59.7,29.95,East,90,1.1,3.4,41,0.00,,,0.00,WUHU216HW,2013-09-03 04:01:00,
2013-09-02 21:03:00,85.9,58.9,29.95,East,90,0.0,2.5,40,0.00,,,0.00,WUHU216HW,2013-09-03 04:03:00,
2013-09-02 21:08:00,85.7,59.3,29.95,WNW,293,1.8,2.5,41,0.00,,,0.00,WUHU216HW,2013-09-03 04:08:00,
2013-09-02 21:13:00,85.5,59.2,29.96,NNW,338,0.4,1.8,41,0.00,,,0.00,WUHU216HW,2013-09-03 04:13:00,
2013-09-02 21:17:00,85.5,59.2,29.97,North,0,0.7,1.8,41,0.00,,,0.00,WUHU216HW,2013-09-03 04:17:00,
2013-09-02 21:22:00,85.5,59.2,29.97,NW,315,1.8,2.2,41,0.00,,,0.00,WUHU216HW,2013-09-03 04:22:00,
2013-09-02 21:27:00,85.7,59.3,29.97,NNW,338,1.3,2.2,41,0.00,,,0.00,WUHU216HW,2013-09-03 04:27:00,
2013-09-02 21:32:00,85.9,58.9,29.97,NW,315,1.6,2.0,40,0.00,,,0.00,WUHU216HW,2013-09-03 04:32:00,
2013-09-02 21:37:00,86.0,59.7,29.97,NNW,338,4.9,4.9,41,0.00,,,0.00,WUHU216HW,2013-09-03 04:37:00,
2013-09-02 21:42:00,86.4,60.0,29.97,NE,45,2.5,4.9,41,0.00,,,0.00,WUHU216HW,2013-09-03 04:42:00,
2013-09-02 21:47:00,86.8,60.3,29.97,NNE,23,1.6,4.9,41,0.00,,,0.00,WUHU216HW,2013-09-03 04:47:00,
2013-09-02 21:52:00,86.9,60.5,29.96,North,0,3.4,7.2,41,0.00,,,0.00,WUHU216HW,2013-09-03 04:52:00,
2013-09-02 21:57:00,87.1,60.0,29.96,East,90,2.7,7.2,40,0.00,,,0.00,WUHU216HW,2013-09-03 04:57:00,
2013-09-02 22:02:00,86.8,58.9,29.96,NNE,23,2.9,6.5,39,0.00,,,0.00,WUHU216HW,2013-09-03 05:02:00,
2013-09-02 22:07:00,86.6,58.8,29.96,NE,45,3.4,4.5,39,0.00,,,0.00,WUHU216HW,2013-09-03 05:07:00,
2013-09-02 22:12:00,86.4,58.6,29.96,North,0,1.8,4.5,39,0.00,,,0.00,WUHU216HW,2013-09-03 05:12:00,
2013-09-02 22:17:00,86.6,58.8,29.97,NE,45,3.4,4.9,39,0.00,,,0.00,WUHU216HW,2013-09-03 05:17:00,
2013-09-02 22:22:00,86.6,58.8,29.97,NNE,23,2.7,4.9,39,0.00,,,0.00,WUHU216HW,2013-09-03 05:22:00,
2013-09-02 22:27:00,86.6,58.8,29.97,NNE,23,4.7,4.7,39,0.00,,,0.00,WUHU216HW,2013-09-03 05:27:00,
2013-09-02 22:32:00,86.8,58.9,29.97,NNW,338,1.6,4.7,39,0.00,,,0.00,WUHU216HW,2013-09-03 05:32:00,
2013-09-02 22:37:00,86.8,58.9,29.97,North,0,4.7,4.7,39,0.00,,,0.00,WUHU216HW,2013-09-03 05:37:00,
2013-09-02 22:42:00,86.9,59.9,29.97,North,0,5.6,5.8,40,0.00,,,0.00,WUHU216HW,2013-09-03 05:42:00,
2013-09-02 22:47:00,87.3,60.2,29.97,North,0,6.9,6.9,40,0.00,,,0.00,WUHU216HW,2013-09-03 05:47:00,
2013-09-02 22:52:00,87.5,59.5,29.97,ENE,68,3.8,6.9,39,0.00,,,0.00,WUHU216HW,2013-09-03 05:52:00,
2013-09-02 22:57:00,87.3,60.2,29.98,SSE,158,0.7,5.6,40,0.00,,,0.00,WUHU216HW,2013-09-03 05:57:00,
2013-09-02 23:02:00,86.8,58.9,29.98,SE,135,1.8,4.5,39,0.00,,,0.00,WUHU216HW,2013-09-03 06:02:00,
2013-09-02 23:07:00,86.0,59.7,29.98,ESE,113,1.3,4.5,41,0.00,,,0.00,WUHU216HW,2013-09-03 06:07:00,
2013-09-02 23:12:00,85.3,58.4,29.97,SE,135,2.2,2.5,40,0.00,,,0.00,WUHU216HW,2013-09-03 06:12:00,
2013-09-02 23:17:00,84.8,58.5,29.97,ESE,113,2.2,3.6,41,0.00,,,0.00,WUHU216HW,2013-09-03 06:17:00,
2013-09-02 23:22:00,84.2,58.1,29.97,ENE,68,2.2,3.6,41,0.00,,,0.00,WUHU216HW,2013-09-03 06:22:00,
2013-09-02 23:27:00,83.9,58.3,29.96,East,90,3.4,3.4,42,0.00,,,0.00,WUHU216HW,2013-09-03 06:27:00,
2013-09-02 23:32:00,83.5,58.1,29.96,ESE,113,2.2,3.4,42,0.00,,,0.00,WUHU216HW,2013-09-03 06:32:00,
2013-09-02 23:37:00,83.2,57.7,29.97,East,90,2.2,3.4,42,0.00,,,0.00,WUHU216HW,2013-09-03 06:37:00,
2013-09-02 23:42:00,83.0,58.2,29.97,ESE,113,2.5,3.4,43,0.00,,,0.00,WUHU216HW,2013-09-03 06:42:00,
2013-09-02 23:47:00,82.6,58.4,29.98,ESE,113,2.7,3.4,44,0.00,,,0.00,WUHU216HW,2013-09-03 06:47:00,
2013-09-02 23:52:00,82.4,58.2,29.98,ENE,68,1.8,4.0,44,0.00,,,0.00,WUHU216HW,2013-09-03 06:52:00,
2013-09-02 23:57:00,82.3,58.7,29.98,NE,45,2.0,4.0,45,0.00,,,0.00,WUHU216HW,2013-09-03 06:57:00,